Time;durP1;ratioP1;P1;durP2;ratioP2;P2;SDS_P1;SDS_P2;PMS_P1;PMS_P2;Temp;Humidity;BMP_temperature;BMP_pressure;BME280_temperature;BME280_humidity;BME280_pressure;Samples;Min_cycle;Max_cycle;Signal;HPM_P1;HPM_P2
2023/01/19 00:00:35;;;;;;;44.00;33.70;;;;;;;;;;10150621;28;20048;-68
2023/01/19 00:05:29;;;;;;;44.60;34.28;;;;;;;;;;10160475;28;20165;-68
2023/01/19 00:10:23;;;;;;;48.03;33.60;;;;;;;;;;10148072;28;20082;-68
2023/01/19 00:15:17;;;;;;;42.28;32.80;;;;;;;;;;10125284;28;20078;-68
2023/01/19 00:20:12;;;;;;;49.75;35.05;;;;;;;;;;10136851;28;20103;-68
2023/01/19 00:25:08;;;;;;;48.50;35.60;;;;;;;;;;10142991;28;20048;-68
2023/01/19 00:30:02;;;;;;;42.33;33.13;;;;;;;;;;10146692;28;20057;-68
2023/01/19 00:34:56;;;;;;;43.17;32.63;;;;;;;;;;10144091;28;20501;-68
2023/01/19 00:39:49;;;;;;;50.78;35.30;;;;;;;;;;10121926;28;20055;-68
2023/01/19 00:44:42;;;;;;;48.50;35.95;;;;;;;;;;10154817;28;20060;-68
2023/01/19 00:49:36;;;;;;;49.10;34.65;;;;;;;;;;10126870;28;20493;-68
2023/01/19 00:54:29;;;;;;;54.28;36.33;;;;;;;;;;10131989;28;20099;-68
2023/01/19 00:59:24;;;;;;;46.90;33.35;;;;;;;;;;10142176;28;20505;-69
2023/01/19 01:04:18;;;;;;;47.67;34.22;;;;;;;;;;10145993;28;20045;-68
2023/01/19 01:09:11;;;;;;;46.13;35.60;;;;;;;;;;10116904;28;20087;-68
2023/01/19 01:14:05;;;;;;;46.17;34.95;;;;;;;;;;10138245;28;20048;-68
2023/01/19 01:18:59;;;;;;;53.85;37.75;;;;;;;;;;10135981;28;20056;-68
2023/01/19 01:23:53;;;;;;;53.33;36.08;;;;;;;;;;10129111;28;20069;-68
2023/01/19 01:28:47;;;;;;;51.65;36.13;;;;;;;;;;10120336;28;20481;-68
2023/01/19 01:33:41;;;;;;;45.10;33.78;;;;;;;;;;10115261;28;20056;-68
2023/01/19 01:38:34;;;;;;;53.38;37.10;;;;;;;;;;10138542;28;20110;-68
2023/01/19 01:43:53;;;;;;;46.03;33.60;;;;;;;;;;10133891;28;20057;-68
2023/01/19 01:49:11;;;;;;;46.25;34.47;;;;;;;;;;10147420;28;20405;-68
2023/01/19 01:54:26;;;;;;;45.58;34.92;;;;;;;;;;10129724;28;20467;-68
2023/01/19 01:59:43;;;;;;;40.20;31.05;;;;;;;;;;10119645;28;20106;-68
2023/01/19 02:04:38;;;;;;;42.45;30.60;;;;;;;;;;10136757;28;20049;-68
2023/01/19 02:14:46;;;;;;;38.30;28.70;;;;;;;;;;10149533;28;20523;-68
2023/01/19 02:19:42;;;;;;;37.17;26.70;;;;;;;;;;10139814;28;20053;-68
2023/01/19 02:24:36;;;;;;;41.60;30.40;;;;;;;;;;10127198;28;20049;-68
2023/01/19 02:29:29;;;;;;;38.30;30.10;;;;;;;;;;10132162;28;20485;-68
2023/01/19 02:34:23;;;;;;;40.83;30.00;;;;;;;;;;10137623;28;20436;-68
2023/01/19 02:39:26;;;;;;;40.80;30.23;;;;;;;;;;10151063;28;20052;-67
2023/01/19 02:44:19;;;;;;;43.53;31.48;;;;;;;;;;10152151;28;20064;-68
2023/01/19 02:49:13;;;;;;;43.05;31.90;;;;;;;;;;10139956;28;20048;-68
2023/01/19 02:54:27;;;;;;;42.42;31.98;;;;;;;;;;10143342;28;20053;-67
2023/01/19 02:59:38;;;;;;;45.47;33.58;;;;;;;;;;10133257;28;20127;-68
2023/01/19 03:04:59;;;;;;;45.42;34.00;;;;;;;;;;10124753;28;20049;-67
2023/01/19 03:10:02;;;;;;;44.67;34.75;;;;;;;;;;10135304;28;20040;-68
2023/01/19 03:15:38;;;;;;;49.55;36.05;;;;;;;;;;10146599;28;20094;-68
2023/01/19 03:20:52;;;;;;;53.28;36.95;;;;;;;;;;10115630;28;20040;-67
2023/01/19 03:25:47;;;;;;;49.60;35.58;;;;;;;;;;10148212;28;20098;-67
2023/01/19 03:30:46;;;;;;;48.10;37.33;;;;;;;;;;10142523;28;20055;-68
2023/01/19 03:35:44;;;;;;;47.42;34.00;;;;;;;;;;10146680;28;20416;-68
2023/01/19 03:40:39;;;;;;;49.97;34.72;;;;;;;;;;10150436;28;20458;-67
2023/01/19 03:45:35;;;;;;;44.95;34.28;;;;;;;;;;10132069;28;20057;-68
2023/01/19 03:50:29;;;;;;;49.13;35.83;;;;;;;;;;10124147;28;20057;-68
2023/01/19 03:55:44;;;;;;;56.17;35.22;;;;;;;;;;10109983;28;20053;-68
2023/01/19 04:00:37;;;;;;;51.97;36.17;;;;;;;;;;10134958;28;20053;-68
2023/01/19 04:05:31;;;;;;;49.70;36.05;;;;;;;;;;10148028;28;20501;-68
2023/01/19 04:10:25;;;;;;;45.80;34.30;;;;;;;;;;10151744;28;20139;-68
2023/01/19 04:15:19;;;;;;;49.78;36.90;;;;;;;;;;10136828;28;20062;-68
2023/01/19 04:20:13;;;;;;;56.00;35.65;;;;;;;;;;10126522;28;20048;-69
2023/01/19 04:25:10;;;;;;;45.10;34.35;;;;;;;;;;10136129;28;20075;-68
2023/01/19 04:30:05;;;;;;;50.22;37.03;;;;;;;;;;10125156;28;20075;-68
2023/01/19 04:34:59;;;;;;;47.88;36.17;;;;;;;;;;10121895;28;20068;-68
2023/01/19 04:39:54;;;;;;;49.38;35.25;;;;;;;;;;10116151;28;20071;-68
2023/01/19 04:44:48;;;;;;;45.08;37.00;;;;;;;;;;10138737;28;20151;-68
2023/01/19 04:49:41;;;;;;;46.15;32.78;;;;;;;;;;10142543;28;20048;-68
2023/01/19 04:54:34;;;;;;;48.60;34.03;;;;;;;;;;10132831;28;20048;-69
2023/01/19 04:59:29;;;;;;;48.15;32.97;;;;;;;;;;10110875;28;20520;-68
2023/01/19 05:04:24;;;;;;;55.53;37.80;;;;;;;;;;10127299;28;20516;-69
2023/01/19 05:09:18;;;;;;;57.13;39.38;;;;;;;;;;10110290;28;20053;-68
2023/01/19 05:14:12;;;;;;;55.40;37.88;;;;;;;;;;10138664;28;20056;-72
2023/01/19 05:19:06;;;;;;;37.10;26.83;;;;;;;;;;10139171;28;20073;-71
2023/01/19 05:24:00;;;;;;;30.08;22.33;;;;;;;;;;10141373;28;20071;-72
2023/01/19 05:28:55;;;;;;;29.48;21.50;;;;;;;;;;10133718;28;20123;-70
2023/01/19 05:33:48;;;;;;;24.15;19.05;;;;;;;;;;10131315;28;20083;-73
2023/01/19 05:38:42;;;;;;;25.05;18.48;;;;;;;;;;10131177;28;20056;-71
2023/01/19 05:43:36;;;;;;;20.63;16.40;;;;;;;;;;10136476;28;20048;-73
2023/01/19 05:48:30;;;;;;;17.83;14.25;;;;;;;;;;10131054;28;20382;-72
2023/01/19 05:53:24;;;;;;;16.13;13.35;;;;;;;;;;10126514;28;20049;-73
2023/01/19 05:58:17;;;;;;;15.88;14.20;;;;;;;;;;10121427;28;20045;-76
2023/01/19 06:03:12;;;;;;;13.82;11.30;;;;;;;;;;10134433;28;20044;-70
2023/01/19 06:08:06;;;;;;;11.85;10.32;;;;;;;;;;10129609;28;20063;-68
2023/01/19 06:12:59;;;;;;;12.80;11.48;;;;;;;;;;10126915;28;20131;-68
2023/01/19 06:17:53;;;;;;;12.27;10.25;;;;;;;;;;10134559;28;20492;-69
2023/01/19 06:22:47;;;;;;;9.88;8.85;;;;;;;;;;10125714;28;20044;-67
2023/01/19 06:27:44;;;;;;;12.30;10.50;;;;;;;;;;10122232;28;20052;-67
2023/01/19 06:32:38;;;;;;;11.93;10.73;;;;;;;;;;10112617;28;20079;-67
2023/01/19 06:37:32;;;;;;;14.32;11.20;;;;;;;;;;10139592;28;20076;-67
2023/01/19 06:42:26;;;;;;;13.18;11.70;;;;;;;;;;10160554;28;20496;-68
2023/01/19 06:47:20;;;;;;;12.05;9.77;;;;;;;;;;10143338;28;20498;-66
2023/01/19 06:52:18;;;;;;;9.27;8.27;;;;;;;;;;10127451;28;20048;-66
2023/01/19 06:57:13;;;;;;;10.32;9.23;;;;;;;;;;10116643;28;20126;-67
2023/01/19 07:02:06;;;;;;;9.73;8.10;;;;;;;;;;10125600;28;20062;-65
2023/01/19 07:07:19;;;;;;;9.55;8.65;;;;;;;;;;10126085;28;20067;-65
2023/01/19 07:12:14;;;;;;;11.88;10.00;;;;;;;;;;10112026;28;20067;-66
2023/01/19 07:17:07;;;;;;;9.38;8.27;;;;;;;;;;10157037;28;20055;-65
2023/01/19 07:22:01;;;;;;;11.88;10.18;;;;;;;;;;10142564;28;20044;-66
2023/01/19 07:26:55;;;;;;;11.75;10.27;;;;;;;;;;10114888;28;20072;-66
2023/01/19 07:31:49;;;;;;;12.32;9.23;;;;;;;;;;10147923;28;20111;-65
2023/01/19 07:36:43;;;;;;;12.40;10.40;;;;;;;;;;10149151;28;20153;-65
2023/01/19 07:41:36;;;;;;;12.93;11.10;;;;;;;;;;10165876;28;20058;-65
2023/01/19 07:46:32;;;;;;;11.77;9.82;;;;;;;;;;10153425;28;20056;-66
2023/01/19 07:51:26;;;;;;;13.77;11.57;;;;;;;;;;10163246;28;20429;-65
2023/01/19 07:56:20;;;;;;;11.73;10.50;;;;;;;;;;10164782;28;20405;-66
2023/01/19 08:01:14;;;;;;;12.85;10.32;;;;;;;;;;10159077;28;20116;-66
2023/01/19 08:06:19;;;;;;;12.05;9.82;;;;;;;;;;10139088;28;20045;-65
2023/01/19 08:11:14;;;;;;;12.15;9.73;;;;;;;;;;10116309;28;20049;-65
2023/01/19 08:16:08;;;;;;;11.60;10.40;;;;;;;;;;10119010;28;20064;-66
2023/01/19 08:21:03;;;;;;;14.30;11.35;;;;;;;;;;10151119;28;20049;-65
2023/01/19 08:25:57;;;;;;;13.57;10.73;;;;;;;;;;10125500;28;20076;-65
2023/01/19 08:30:54;;;;;;;16.10;10.73;;;;;;;;;;10111211;28;20132;-66
2023/01/19 08:35:50;;;;;;;16.02;11.88;;;;;;;;;;10154034;28;20052;-65
2023/01/19 08:40:43;;;;;;;14.20;11.57;;;;;;;;;;10149986;28;20064;-66
2023/01/19 08:45:45;;;;;;;15.18;11.05;;;;;;;;;;10161264;28;20059;-65
2023/01/19 08:50:52;;;;;;;15.55;11.88;;;;;;;;;;10137962;28;20049;-65
2023/01/19 08:55:45;;;;;;;16.33;13.68;;;;;;;;;;10151610;28;20052;-65
2023/01/19 09:00:39;;;;;;;17.25;13.52;;;;;;;;;;10174566;28;20056;-65
2023/01/19 09:05:36;;;;;;;19.23;16.08;;;;;;;;;;10181073;28;20075;-65
2023/01/19 09:10:34;;;;;;;18.35;14.70;;;;;;;;;;10167879;28;20099;-66
2023/01/19 09:15:28;;;;;;;19.38;13.95;;;;;;;;;;10115382;28;20132;-65
2023/01/19 09:20:22;;;;;;;18.88;15.45;;;;;;;;;;10142721;28;20052;-65
2023/01/19 09:25:16;;;;;;;20.35;14.98;;;;;;;;;;10169486;28;20101;-64
2023/01/19 09:30:13;;;;;;;19.52;16.13;;;;;;;;;;10141744;28;20087;-67
2023/01/19 09:35:09;;;;;;;19.55;15.93;;;;;;;;;;10144265;28;20048;-63
2023/01/19 09:40:04;;;;;;;21.88;16.13;;;;;;;;;;10155050;28;20040;-64
2023/01/19 09:44:57;;;;;;;17.70;15.25;;;;;;;;;;10154820;28;20109;-63
2023/01/19 09:49:57;;;;;;;25.83;16.42;;;;;;;;;;10144830;28;20072;-63
2023/01/19 09:54:55;;;;;;;20.90;15.95;;;;;;;;;;10175158;28;20097;-64
2023/01/19 09:59:50;;;;;;;22.95;15.55;;;;;;;;;;10172678;28;20052;-64
2023/01/19 10:04:52;;;;;;;25.83;17.25;;;;;;;;;;10172821;28;20073;-64
2023/01/19 10:10:03;;;;;;;29.05;19.15;;;;;;;;;;10155813;28;20053;-63
2023/01/19 10:15:23;;;;;;;22.85;16.10;;;;;;;;;;10173201;28;20066;-63
2023/01/19 10:20:26;;;;;;;24.90;18.15;;;;;;;;;;10161462;28;20599;-64
2023/01/19 10:25:22;;;;;;;23.60;15.45;;;;;;;;;;10160365;28;20505;-63
2023/01/19 10:30:22;;;;;;;20.85;15.85;;;;;;;;;;10170545;28;20470;-63
2023/01/19 10:35:23;;;;;;;22.00;14.95;;;;;;;;;;10152141;28;20072;-63
2023/01/19 10:40:31;;;;;;;19.48;13.60;;;;;;;;;;10121228;28;20049;-63
2023/01/19 10:45:28;;;;;;;16.88;12.45;;;;;;;;;;10135422;28;20057;-64
2023/01/19 10:50:23;;;;;;;21.65;16.10;;;;;;;;;;10152075;28;20080;-63
2023/01/19 10:55:36;;;;;;;19.80;14.45;;;;;;;;;;10164286;28;20091;-63
2023/01/19 11:00:32;;;;;;;16.75;14.82;;;;;;;;;;10139748;28;20036;-65
2023/01/19 11:05:29;;;;;;;16.13;14.32;;;;;;;;;;10153825;28;20093;-65
2023/01/19 11:10:27;;;;;;;17.73;13.88;;;;;;;;;;10158840;28;20055;-65
2023/01/19 11:15:24;;;;;;;16.87;13.03;;;;;;;;;;10152505;28;20079;-66
2023/01/19 11:20:24;;;;;;;17.58;15.13;;;;;;;;;;10152830;28;20044;-66
2023/01/19 11:25:27;;;;;;;23.55;15.30;;;;;;;;;;10162847;28;20056;-65
2023/01/19 11:30:24;;;;;;;22.95;15.52;;;;;;;;;;10163580;28;20049;-65
2023/01/19 11:35:37;;;;;;;22.00;14.60;;;;;;;;;;10175264;28;20047;-65
2023/01/19 11:40:31;;;;;;;20.48;14.68;;;;;;;;;;10174860;28;20051;-66
2023/01/19 11:45:25;;;;;;;26.23;16.00;;;;;;;;;;10173760;28;20052;-65
2023/01/19 11:50:24;;;;;;;23.23;14.70;;;;;;;;;;10174636;28;20056;-65
2023/01/19 11:55:46;;;;;;;23.27;16.88;;;;;;;;;;10178909;28;20060;-66
2023/01/19 12:00:42;;;;;;;27.75;17.63;;;;;;;;;;10121173;28;20059;-65
2023/01/19 12:05:39;;;;;;;26.42;14.40;;;;;;;;;;10130603;28;20056;-66
2023/01/19 12:10:36;;;;;;;18.48;14.15;;;;;;;;;;10132392;28;20041;-66
2023/01/19 12:15:43;;;;;;;17.73;14.00;;;;;;;;;;10148479;28;20048;-63
2023/01/19 12:20:39;;;;;;;22.33;13.98;;;;;;;;;;10130034;28;20053;-63
2023/01/19 12:25:53;;;;;;;21.00;14.40;;;;;;;;;;10149280;28;20424;-63
2023/01/19 12:30:47;;;;;;;18.85;12.27;;;;;;;;;;10126723;28;20079;-63
2023/01/19 12:36:02;;;;;;;19.45;11.98;;;;;;;;;;10135565;28;20056;-63
2023/01/19 12:41:19;;;;;;;14.27;11.32;;;;;;;;;;10149583;28;20493;-64
2023/01/19 12:46:29;;;;;;;18.98;12.18;;;;;;;;;;10121459;28;20065;-63
2023/01/19 12:51:27;;;;;;;14.32;10.02;;;;;;;;;;10165869;28;20048;-64
2023/01/19 12:56:28;;;;;;;13.48;10.80;;;;;;;;;;10144860;28;20557;-63
2023/01/19 13:01:23;;;;;;;12.88;9.13;;;;;;;;;;10161287;28;20049;-64
2023/01/19 13:06:17;;;;;;;9.23;8.07;;;;;;;;;;10123098;28;20148;-66
2023/01/19 13:11:17;;;;;;;10.15;8.93;;;;;;;;;;10122165;28;20132;-64
2023/01/19 13:16:19;;;;;;;10.95;8.18;;;;;;;;;;10144585;28;20132;-64
2023/01/19 13:21:33;;;;;;;9.55;8.48;;;;;;;;;;10136057;28;20136;-64
2023/01/19 13:26:30;;;;;;;10.70;8.85;;;;;;;;;;10166498;28;20131;-64
2023/01/19 13:31:24;;;;;;;9.77;7.47;;;;;;;;;;10142947;28;20465;-64
2023/01/19 13:36:25;;;;;;;11.23;7.53;;;;;;;;;;10132714;28;20075;-64
2023/01/19 13:41:24;;;;;;;11.13;7.28;;;;;;;;;;10162449;28;20698;-64
2023/01/19 13:46:18;;;;;;;8.18;6.70;;;;;;;;;;10165437;28;20488;-64
2023/01/19 13:51:17;;;;;;;10.85;7.50;;;;;;;;;;10156690;28;20566;-64
2023/01/19 13:56:22;;;;;;;5.50;4.97;;;;;;;;;;10156188;28;20078;-64
2023/01/19 14:01:21;;;;;;;6.53;5.93;;;;;;;;;;10162039;28;21475;-64
2023/01/19 14:06:29;;;;;;;7.68;5.45;;;;;;;;;;10161616;28;20184;-64
2023/01/19 14:11:23;;;;;;;15.13;6.20;;;;;;;;;;10148473;28;20135;-64
2023/01/19 14:16:23;;;;;;;5.97;5.40;;;;;;;;;;10157364;28;20408;-64
2023/01/19 14:21:18;;;;;;;7.35;5.88;;;;;;;;;;10175227;28;20062;-63
2023/01/19 14:26:36;;;;;;;7.13;6.53;;;;;;;;;;10164016;28;20063;-64
2023/01/19 14:31:32;;;;;;;6.07;5.47;;;;;;;;;;10117402;28;20099;-64
2023/01/19 14:36:33;;;;;;;6.38;5.65;;;;;;;;;;10167534;28;20468;-64
2023/01/19 14:41:29;;;;;;;5.53;5.07;;;;;;;;;;10148560;28;20041;-64
2023/01/19 14:46:23;;;;;;;4.85;4.35;;;;;;;;;;10146955;28;20063;-64
2023/01/19 14:51:19;;;;;;;4.45;4.13;;;;;;;;;;10155523;28;20395;-64
2023/01/19 14:56:43;;;;;;;5.30;3.80;;;;;;;;;;10176250;28;20439;-64
2023/01/19 15:01:36;;;;;;;3.97;3.67;;;;;;;;;;10181118;28;20121;-64
2023/01/19 15:06:31;;;;;;;4.90;3.83;;;;;;;;;;10180476;28;20514;-64
2023/01/19 15:11:33;;;;;;;3.80;3.50;;;;;;;;;;10163291;28;20060;-64
2023/01/19 15:16:28;;;;;;;4.72;4.22;;;;;;;;;;10161809;28;20048;-64
2023/01/19 15:21:25;;;;;;;4.78;4.38;;;;;;;;;;10158092;28;20071;-64
2023/01/19 15:26:21;;;;;;;4.95;4.55;;;;;;;;;;10158538;28;20051;-63
2023/01/19 15:31:17;;;;;;;4.82;4.43;;;;;;;;;;10171788;28;20058;-64
2023/01/19 15:36:16;;;;;;;4.63;4.22;;;;;;;;;;10143497;28;20179;-63
2023/01/19 15:41:23;;;;;;;4.53;4.13;;;;;;;;;;10135313;28;20095;-63
2023/01/19 15:46:19;;;;;;;4.30;3.90;;;;;;;;;;10165472;28;20052;-64
2023/01/19 15:51:15;;;;;;;4.63;4.22;;;;;;;;;;10154612;28;20136;-63
2023/01/19 15:56:14;;;;;;;5.07;4.57;;;;;;;;;;10137191;28;20429;-63
2023/01/19 16:01:34;;;;;;;5.70;5.10;;;;;;;;;;10122248;28;20044;-63
2023/01/19 16:06:29;;;;;;;5.00;4.60;;;;;;;;;;10135001;28;20051;-66
2023/01/19 16:11:23;;;;;;;5.20;4.80;;;;;;;;;;10137752;28;20139;-66
2023/01/19 16:16:20;;;;;;;5.95;5.45;;;;;;;;;;10128317;28;20048;-66
2023/01/19 16:21:14;;;;;;;6.28;5.68;;;;;;;;;;10141697;28;20121;-66
2023/01/19 16:26:25;;;;;;;6.07;5.57;;;;;;;;;;10141097;28;20053;-67
2023/01/19 16:31:18;;;;;;;6.32;5.72;;;;;;;;;;10142412;28;20124;-67
2023/01/19 16:36:26;;;;;;;5.88;5.35;;;;;;;;;;10137945;28;20593;-67
2023/01/19 16:41:20;;;;;;;11.20;7.32;;;;;;;;;;10142613;28;20045;-66
2023/01/19 16:46:19;;;;;;;7.55;6.35;;;;;;;;;;10138577;28;20053;-66
2023/01/19 16:51:13;;;;;;;;;;;;;;;;;;10137853;28;20056;-66
2023/01/19 16:56:25;;;;;;;5.80;5.30;;;;;;;;;;10137158;28;19920;-65
2023/01/19 17:01:19;;;;;;;6.22;5.68;;;;;;;;;;10146985;28;20411;-66
2023/01/19 17:06:16;;;;;;;6.57;5.97;;;;;;;;;;10142897;28;20057;-66
2023/01/19 17:11:29;;;;;;;6.30;5.80;;;;;;;;;;10141493;28;20040;-66
2023/01/19 17:16:23;;;;;;;6.72;6.13;;;;;;;;;;10134176;28;20037;-66
2023/01/19 17:21:18;;;;;;;7.95;7.15;;;;;;;;;;10145269;28;20048;-66
2023/01/19 17:26:11;;;;;;;7.60;6.90;;;;;;;;;;10138284;28;20044;-66
2023/01/19 17:31:30;;;;;;;10.80;7.03;;;;;;;;;;10137602;28;20048;-65
2023/01/19 17:36:26;;;;;;;7.93;7.25;;;;;;;;;;10134812;28;20056;-65
2023/01/19 17:41:22;;;;;;;8.18;7.38;;;;;;;;;;10135586;28;20135;-68
2023/01/19 17:46:18;;;;;;;7.90;7.18;;;;;;;;;;10142245;28;20471;-66
2023/01/19 17:51:12;;;;;;;10.00;9.02;;;;;;;;;;10136182;28;20056;-67
2023/01/19 17:56:28;;;;;;;10.90;9.80;;;;;;;;;;10091126;28;20041;-66
2023/01/19 18:01:43;;;;;;;11.88;10.77;;;;;;;;;;10150842;28;20062;-66
2023/01/19 18:06:45;;;;;;;11.30;10.25;;;;;;;;;;10145178;28;20105;-67
2023/01/19 18:11:40;;;;;;;11.20;9.98;;;;;;;;;;10133783;28;20052;-67
2023/01/19 18:16:34;;;;;;;10.65;9.55;;;;;;;;;;10145364;28;20036;-67
2023/01/19 18:21:29;;;;;;;10.30;9.18;;;;;;;;;;10143866;28;20724;-67
2023/01/19 18:26:22;;;;;;;12.30;10.88;;;;;;;;;;10140778;28;20066;-69
2023/01/19 18:31:17;;;;;;;12.25;10.63;;;;;;;;;;10141311;28;20155;-67
2023/01/19 18:36:13;;;;;;;12.15;10.75;;;;;;;;;;10139006;28;20053;-68
2023/01/19 18:41:28;;;;;;;13.13;11.68;;;;;;;;;;10146742;28;20443;-69
2023/01/19 18:46:26;;;;;;;12.80;11.35;;;;;;;;;;10132342;28;20049;-67
2023/01/19 18:51:19;;;;;;;14.02;12.63;;;;;;;;;;10134603;28;20128;-68
2023/01/19 18:56:15;;;;;;;15.50;13.07;;;;;;;;;;10131063;28;20492;-68
2023/01/19 19:01:20;;;;;;;15.60;14.00;;;;;;;;;;10147187;28;20544;-68
2023/01/19 19:06:15;;;;;;;14.32;12.18;;;;;;;;;;10137729;28;20425;-67
2023/01/19 19:11:09;;;;;;;16.02;13.73;;;;;;;;;;10143293;28;20444;-68
2023/01/19 19:16:08;;;;;;;14.93;13.32;;;;;;;;;;10144450;28;20055;-68
2023/01/19 19:21:07;;;;;;;16.95;13.40;;;;;;;;;;10143021;28;20063;-68
2023/01/19 19:26:21;;;;;;;14.68;13.18;;;;;;;;;;10140308;28;20534;-68
2023/01/19 19:31:19;;;;;;;15.32;13.60;;;;;;;;;;10132742;28;20080;-68
2023/01/19 19:36:12;;;;;;;20.98;15.13;;;;;;;;;;10146727;28;20098;-66
2023/01/19 19:41:08;;;;;;;17.75;13.90;;;;;;;;;;10150628;28;20070;-68
2023/01/19 19:46:26;;;;;;;16.63;14.20;;;;;;;;;;10146229;28;20620;-68
2023/01/19 19:51:39;;;;;;;15.98;13.77;;;;;;;;;;10131147;28;20114;-67
2023/01/19 19:56:33;;;;;;;18.10;15.25;;;;;;;;;;10142044;28;20455;-66
2023/01/19 20:01:31;;;;;;;18.30;15.48;;;;;;;;;;10137068;28;20479;-66
2023/01/19 20:06:26;;;;;;;17.67;13.43;;;;;;;;;;10136433;28;20471;-67
2023/01/19 20:11:23;;;;;;;18.10;14.57;;;;;;;;;;10138473;28;20060;-68
2023/01/19 20:16:19;;;;;;;16.55;14.63;;;;;;;;;;10141376;28;20135;-68
2023/01/19 20:21:19;;;;;;;17.98;14.60;;;;;;;;;;10141161;28;20044;-66
2023/01/19 20:26:13;;;;;;;16.20;12.90;;;;;;;;;;10138734;28;20459;-67
2023/01/19 20:31:20;;;;;;;17.65;13.50;;;;;;;;;;10146879;28;20072;-68
2023/01/19 20:36:14;;;;;;;15.43;12.45;;;;;;;;;;10140436;28;20052;-66
2023/01/19 20:41:09;;;;;;;16.35;13.52;;;;;;;;;;10134387;28;20523;-65
2023/01/19 20:46:04;;;;;;;15.20;11.73;;;;;;;;;;10132684;28;20059;-65
2023/01/19 20:51:00;;;;;;;16.17;12.77;;;;;;;;;;10135255;28;20123;-66
2023/01/19 20:55:55;;;;;;;15.02;12.43;;;;;;;;;;10146627;28;20068;-67
2023/01/19 21:00:50;;;;;;;14.52;11.75;;;;;;;;;;10139862;28;20076;-67
2023/01/19 21:05:47;;;;;;;15.07;12.45;;;;;;;;;;10132024;28;20057;-67
2023/01/19 21:10:40;;;;;;;16.38;12.30;;;;;;;;;;10141287;28;20055;-66
2023/01/19 21:15:33;;;;;;;16.17;13.52;;;;;;;;;;10136045;28;20048;-66
2023/01/19 21:20:30;;;;;;;18.70;12.50;;;;;;;;;;10146382;28;20055;-65
2023/01/19 21:25:24;;;;;;;16.33;14.10;;;;;;;;;;10135188;28;20055;-66
2023/01/19 21:30:18;;;;;;;16.20;12.32;;;;;;;;;;10129215;28;20068;-64
2023/01/19 21:35:11;;;;;;;16.75;11.82;;;;;;;;;;10127008;28;20405;-66
2023/01/19 21:40:08;;;;;;;19.05;12.40;;;;;;;;;;10127951;28;20363;-66
2023/01/19 21:45:03;;;;;;;16.50;12.32;;;;;;;;;;10137921;28;20509;-65
2023/01/19 21:49:56;;;;;;;14.95;12.35;;;;;;;;;;10136334;28;20043;-66
2023/01/19 21:54:50;;;;;;;16.88;12.88;;;;;;;;;;10134313;28;20036;-65
2023/01/19 21:59:45;;;;;;;19.98;13.38;;;;;;;;;;10137634;28;20048;-66
2023/01/19 22:04:39;;;;;;;17.88;14.82;;;;;;;;;;10136006;28;20045;-64
2023/01/19 22:09:34;;;;;;;20.63;15.07;;;;;;;;;;10123251;28;20174;-65
2023/01/19 22:14:27;;;;;;;18.33;13.98;;;;;;;;;;10125438;28;20115;-64
2023/01/19 22:19:21;;;;;;;19.60;16.10;;;;;;;;;;10122683;28;20057;-66
2023/01/19 22:24:15;;;;;;;17.98;14.65;;;;;;;;;;10130423;28;20075;-65
2023/01/19 22:29:10;;;;;;;17.27;13.40;;;;;;;;;;10132836;28;20559;-65
2023/01/19 22:34:09;;;;;;;18.48;15.55;;;;;;;;;;10126901;28;20485;-64
2023/01/19 22:39:06;;;;;;;22.10;16.33;;;;;;;;;;10127077;28;20048;-67
2023/01/19 22:44:01;;;;;;;20.90;16.48;;;;;;;;;;10124277;28;20059;-66
2023/01/19 22:48:55;;;;;;;22.45;15.57;;;;;;;;;;10143753;28;20056;-66
2023/01/19 22:53:49;;;;;;;19.65;13.90;;;;;;;;;;10164198;28;20071;-66
2023/01/19 22:58:43;;;;;;;17.98;13.23;;;;;;;;;;10135799;28;20053;-66
2023/01/19 23:03:37;;;;;;;19.17;14.90;;;;;;;;;;10159108;28;20057;-66
2023/01/19 23:08:32;;;;;;;16.95;12.93;;;;;;;;;;10125695;28;20050;-66
2023/01/19 23:13:27;;;;;;;15.88;11.90;;;;;;;;;;10131677;28;20056;-66
2023/01/19 23:18:21;;;;;;;16.83;12.38;;;;;;;;;;10124477;28;20144;-66
2023/01/19 23:23:15;;;;;;;15.82;12.18;;;;;;;;;;10134510;28;20095;-65
2023/01/19 23:28:08;;;;;;;14.27;11.60;;;;;;;;;;10152225;28;20119;-66
2023/01/19 23:33:03;;;;;;;14.73;11.48;;;;;;;;;;10150473;28;20079;-66
2023/01/19 23:37:57;;;;;;;16.48;12.52;;;;;;;;;;10151871;28;20072;-66
2023/01/19 23:42:51;;;;;;;15.75;12.70;;;;;;;;;;10145810;28;20493;-66
2023/01/19 23:47:45;;;;;;;14.90;11.30;;;;;;;;;;10134153;28;20521;-66
2023/01/19 23:52:38;;;;;;;15.00;11.20;;;;;;;;;;10110554;28;20052;-66
2023/01/19 23:57:32;;;;;;;17.17;12.82;;;;;;;;;;10142526;28;20064;-66
